Time;durP1;ratioP1;P1;durP2;ratioP2;P2;SDS_P1;SDS_P2;PMS_P1;PMS_P2;Temp;Humidity;BMP_temperature;BMP_pressure;BME280_temperature;BME280_humidity;BME280_pressure;Samples;Min_cycle;Max_cycle;Signal;HPM_P1;HPM_P2
2022/11/21 00:00:18;;;;;;;3.27;1.93;;;4.90;99.90;;;;;;4996473;28;20175;-80
2022/11/21 00:02:44;;;;;;;3.37;1.93;;;5.00;99.90;;;;;;4996403;28;20178;-80
2022/11/21 00:05:10;;;;;;;2.40;1.90;;;5.00;99.90;;;;;;4995905;28;20265;-80
2022/11/21 00:07:35;;;;;;;3.57;1.80;;;5.00;99.90;;;;;;4995979;28;20261;-80
2022/11/21 00:10:01;;;;;;;2.73;1.90;;;5.00;99.90;;;;;;4994734;28;20198;-80
2022/11/21 00:12:26;;;;;;;4.67;2.03;;;5.00;99.90;;;;;;4994617;28;20189;-79
2022/11/21 00:14:52;;;;;;;4.70;2.10;;;5.00;99.90;;;;;;4994239;28;20207;-80
2022/11/21 00:17:17;;;;;;;5.37;2.00;;;5.10;99.90;;;;;;4996071;28;20183;-79
2022/11/21 00:19:43;;;;;;;5.17;2.40;;;5.00;99.90;;;;;;4995810;28;20186;-80
2022/11/21 00:22:09;;;;;;;6.03;2.00;;;5.00;99.90;;;;;;4995799;28;20186;-79
2022/11/21 00:24:34;;;;;;;2.73;1.60;;;5.10;99.90;;;;;;4995786;28;20274;-80
2022/11/21 00:27:00;;;;;;;2.60;1.80;;;5.00;99.90;;;;;;4995589;28;20238;-80
2022/11/21 00:29:26;;;;;;;2.70;1.70;;;5.00;99.90;;;;;;4994419;28;20179;-80
2022/11/21 00:31:51;;;;;;;4.00;1.93;;;5.10;99.90;;;;;;4995522;28;20172;-80
2022/11/21 00:34:17;;;;;;;4.93;2.00;;;5.00;99.90;;;;;;4994231;28;20225;-80
2022/11/21 00:36:42;;;;;;;3.90;1.83;;;5.10;99.90;;;;;;4995464;28;20246;-77
2022/11/21 00:39:08;;;;;;;4.40;1.70;;;5.10;99.90;;;;;;4995782;28;20172;-79
2022/11/21 00:41:33;;;;;;;4.80;1.80;;;5.10;99.90;;;;;;4994450;28;20183;-80
2022/11/21 00:43:59;;;;;;;3.57;1.73;;;5.10;99.90;;;;;;4994259;28;20638;-80
2022/11/21 00:46:24;;;;;;;5.30;1.97;;;5.00;99.90;;;;;;5006767;23;20232;-80
2022/11/21 00:48:50;;;;;;;3.60;1.83;;;5.00;99.90;;;;;;4973885;28;20208;-80
2022/11/21 00:51:16;;;;;;;2.03;1.80;;;5.00;99.90;;;;;;4975332;28;20180;-80
2022/11/21 00:53:41;;;;;;;4.90;1.90;;;5.10;99.90;;;;;;4976144;28;20172;-81
2022/11/21 00:56:07;;;;;;;3.20;1.80;;;5.10;99.90;;;;;;4975448;28;20614;-81
2022/11/21 00:58:33;;;;;;;6.97;1.90;;;5.10;99.90;;;;;;4976087;28;20183;-80
2022/11/21 01:01:11;;;;;;;3.73;1.73;;;5.00;99.90;;;;;;4976439;28;20248;-80
2022/11/21 01:03:37;;;;;;;2.70;1.77;;;5.00;99.90;;;;;;4976045;28;20190;-80
2022/11/21 01:06:11;;;;;;;3.80;1.80;;;5.10;99.90;;;;;;4974930;28;20218;-80
2022/11/21 01:08:39;;;;;;;4.57;2.03;;;5.10;99.90;;;;;;4974601;28;20173;-80
2022/11/21 01:11:10;;;;;;;3.87;1.97;;;5.10;99.90;;;;;;4976614;28;20172;-80
2022/11/21 01:13:37;;;;;;;2.87;1.70;;;5.10;99.90;;;;;;4975730;28;20180;-81
2022/11/21 01:16:08;;;;;;;3.50;1.80;;;5.10;99.90;;;;;;4975903;28;20203;-81
2022/11/21 01:18:34;;;;;;;3.00;1.80;;;5.10;99.90;;;;;;4974090;28;20207;-80
2022/11/21 01:21:11;;;;;;;3.37;2.00;;;5.10;99.90;;;;;;4975585;28;20545;-81
2022/11/21 01:23:36;;;;;;;5.97;1.80;;;5.10;99.90;;;;;;4974632;28;20180;-80
2022/11/21 01:26:08;;;;;;;4.23;1.80;;;5.10;99.90;;;;;;4974112;28;20306;-81
2022/11/21 01:28:34;;;;;;;4.97;2.10;;;5.10;99.90;;;;;;4975597;28;20173;-81
2022/11/21 01:31:11;;;;;;;6.97;1.77;;;5.10;99.90;;;;;;4974553;28;20176;-81
2022/11/21 01:33:37;;;;;;;3.53;1.80;;;5.10;99.90;;;;;;4976321;28;20242;-80
2022/11/21 01:36:15;;;;;;;2.27;1.63;;;5.20;99.90;;;;;;4974574;28;20234;-82
2022/11/21 01:38:43;;;;;;;3.43;1.70;;;5.20;99.90;;;;;;4974200;28;20180;-80
2022/11/21 01:41:10;;;;;;;6.27;1.90;;;5.20;99.90;;;;;;4974231;28;20212;-81
2022/11/21 01:43:36;;;;;;;4.20;2.27;;;5.10;99.90;;;;;;4974135;28;20234;-81
2022/11/21 01:46:12;;;;;;;4.87;2.10;;;5.20;99.90;;;;;;4973921;28;20219;-81
2022/11/21 01:48:43;;;;;;;4.70;1.83;;;5.20;99.90;;;;;;4974287;28;20611;-81
2022/11/21 01:51:25;;;;;;;4.17;1.80;;;5.20;99.90;;;;;;4975438;28;20182;-81
2022/11/21 01:54:17;;;;;;;4.03;2.13;;;5.20;99.90;;;;;;4974029;28;20176;-81
2022/11/21 01:56:43;;;;;;;4.93;1.90;;;5.20;99.90;;;;;;4970230;28;20224;-77
2022/11/21 01:59:13;;;;;;;5.47;1.93;;;5.10;99.90;;;;;;4974752;28;20634;-81
2022/11/21 02:01:38;;;;;;;2.73;1.73;;;5.10;99.90;;;;;;4975837;28;20192;-81
2022/11/21 02:04:06;;;;;;;2.10;1.60;;;5.10;99.90;;;;;;4975367;28;20668;-80
2022/11/21 02:06:33;;;;;;;5.13;1.67;;;5.10;99.90;;;;;;4973946;28;20354;-80
2022/11/21 02:09:00;;;;;;;4.00;1.60;;;5.10;99.90;;;;;;4973856;28;20239;-81
2022/11/21 02:11:51;;;;;;;3.43;1.77;;;5.10;99.90;;;;;;4975863;28;20200;-81
2022/11/21 02:14:17;;;;;;;5.00;1.97;;;5.10;99.90;;;;;;4974384;28;20183;-80
2022/11/21 02:16:43;;;;;;;4.97;2.13;;;5.10;99.90;;;;;;4974692;28;20192;-77
2022/11/21 02:19:34;;;;;;;7.93;2.50;;;5.10;99.90;;;;;;4975869;28;20234;-81
2022/11/21 02:22:08;;;;;;;7.13;2.60;;;5.10;99.90;;;;;;4975377;28;20653;-80
2022/11/21 02:24:42;;;;;;;7.67;2.90;;;5.10;99.90;;;;;;4974804;28;20164;-80
2022/11/21 02:27:09;;;;;;;9.43;2.93;;;5.10;99.90;;;;;;4973583;28;20548;-81
2022/11/21 02:29:34;;;;;;;5.90;2.80;;;5.10;99.90;;;;;;4975722;28;20259;-81
2022/11/21 02:32:04;;;;;;;5.47;2.27;;;5.10;99.90;;;;;;4975351;28;20211;-81
2022/11/21 02:34:29;;;;;;;4.70;2.10;;;5.10;99.90;;;;;;4975412;28;20180;-81
2022/11/21 02:36:56;;;;;;;3.30;1.40;;;5.10;99.90;;;;;;4973785;28;20762;-80
2022/11/21 02:39:28;;;;;;;2.10;1.50;;;5.10;99.90;;;;;;4974111;28;20172;-80
2022/11/21 02:42:01;;;;;;;3.50;1.30;;;5.10;99.90;;;;;;4975294;28;20200;-80
2022/11/21 02:44:36;;;;;;;2.13;1.03;;;5.10;99.90;;;;;;4973900;28;20181;-80
2022/11/21 02:47:02;;;;;;;1.77;1.23;;;5.10;99.90;;;;;;4975113;28;20234;-80
2022/11/21 02:49:39;;;;;;;3.43;1.50;;;5.10;99.90;;;;;;4974231;28;20262;-81
2022/11/21 02:52:05;;;;;;;1.40;1.10;;;5.00;99.90;;;;;;4975080;28;20168;-80
2022/11/21 02:54:30;;;;;;;2.77;1.30;;;5.00;99.90;;;;;;4974637;28;20182;-80
2022/11/21 02:56:56;;;;;;;2.80;1.13;;;5.00;99.90;;;;;;4974004;28;20708;-80
2022/11/21 02:59:22;;;;;;;1.90;1.00;;;5.00;99.90;;;;;;4974488;28;20181;-80
2022/11/21 03:01:48;;;;;;;1.87;1.17;;;4.90;99.90;;;;;;4974148;28;20263;-81
2022/11/21 03:04:13;;;;;;;2.30;1.33;;;5.00;99.90;;;;;;4974898;28;20615;-80
2022/11/21 03:06:39;;;;;;;2.30;1.20;;;4.90;99.90;;;;;;4973984;28;20204;-81
2022/11/21 03:09:05;;;;;;;2.20;1.30;;;4.90;99.90;;;;;;4975450;28;20262;-80
2022/11/21 03:11:30;;;;;;;1.30;1.10;;;4.90;99.90;;;;;;4976915;28;20195;-81
2022/11/21 03:13:56;;;;;;;1.33;1.00;;;4.90;99.90;;;;;;4978161;28;20184;-80
2022/11/21 03:16:22;;;;;;;1.13;1.00;;;4.90;99.90;;;;;;4976785;28;20203;-80
2022/11/21 03:18:47;;;;;;;2.23;1.10;;;4.90;99.90;;;;;;4978732;28;20218;-80
2022/11/21 03:21:13;;;;;;;1.13;1.03;;;4.90;99.90;;;;;;4978494;28;20191;-81
2022/11/21 03:23:38;;;;;;;1.00;0.80;;;4.90;99.90;;;;;;4977143;28;20192;-80
2022/11/21 03:26:04;;;;;;;0.87;0.80;;;4.80;99.90;;;;;;4977027;28;20218;-80
2022/11/21 03:28:29;;;;;;;1.27;0.90;;;4.80;99.90;;;;;;4977714;28;20203;-80
2022/11/21 03:30:55;;;;;;;0.90;0.80;;;4.80;99.90;;;;;;4976716;28;20184;-80
2022/11/21 03:33:20;;;;;;;1.43;0.97;;;4.80;99.90;;;;;;4977109;28;20183;-80
2022/11/21 03:35:47;;;;;;;1.20;1.10;;;4.80;99.90;;;;;;4977103;28;20549;-81
2022/11/21 03:38:12;;;;;;;1.10;0.90;;;4.70;99.90;;;;;;4978143;28;20189;-81
2022/11/21 03:40:38;;;;;;;2.20;0.93;;;4.70;99.90;;;;;;4978168;28;20226;-81
2022/11/21 03:43:07;;;;;;;1.83;0.83;;;4.70;99.90;;;;;;4977236;28;20550;-80
2022/11/21 03:45:32;;;;;;;1.03;0.80;;;4.60;99.90;;;;;;4976510;28;20220;-80
2022/11/21 03:47:58;;;;;;;0.80;0.80;;;4.50;99.90;;;;;;4976436;28;20202;-80
2022/11/21 03:50:23;;;;;;;1.00;0.90;;;4.60;99.90;;;;;;4976777;28;20180;-81
2022/11/21 03:52:49;;;;;;;0.90;0.80;;;4.60;99.90;;;;;;4976718;28;20219;-80
2022/11/21 03:55:15;;;;;;;0.80;0.80;;;4.60;99.90;;;;;;4976129;28;20277;-80
2022/11/21 03:57:40;;;;;;;1.10;1.00;;;4.60;99.90;;;;;;4977756;28;20177;-80
2022/11/21 04:00:06;;;;;;;1.10;0.80;;;4.60;99.90;;;;;;4977520;28;20186;-81
2022/11/21 04:02:32;;;;;;;0.73;0.73;;;4.60;99.90;;;;;;4976039;28;20199;-80
2022/11/21 04:04:57;;;;;;;0.90;0.70;;;4.60;99.90;;;;;;4976233;28;20598;-81
2022/11/21 04:07:23;;;;;;;0.60;0.60;;;4.60;99.90;;;;;;4977394;28;20550;-80
2022/11/21 04:09:48;;;;;;;0.60;0.60;;;4.60;99.90;;;;;;4977226;28;20176;-81
2022/11/21 04:12:14;;;;;;;1.30;0.70;;;4.60;99.90;;;;;;4977319;28;20177;-80
2022/11/21 04:14:39;;;;;;;0.70;0.70;;;4.60;99.90;;;;;;4977295;28;20183;-80
2022/11/21 04:17:05;;;;;;;0.70;0.70;;;4.50;99.90;;;;;;4975648;28;20713;-80
2022/11/21 04:19:31;;;;;;;1.23;0.80;;;4.60;99.90;;;;;;4977059;28;20203;-81
2022/11/21 04:21:56;;;;;;;1.77;0.87;;;4.50;99.90;;;;;;4975489;28;20560;-80
2022/11/21 04:24:22;;;;;;;1.00;0.83;;;4.50;99.90;;;;;;4977128;28;20548;-80
2022/11/21 04:26:47;;;;;;;1.13;0.80;;;4.50;99.90;;;;;;4975448;28;20200;-80
2022/11/21 04:29:13;;;;;;;1.20;0.70;;;4.50;99.90;;;;;;4975568;28;20232;-80
2022/11/21 04:31:38;;;;;;;0.67;0.67;;;4.50;99.90;;;;;;4975829;28;20180;-81
2022/11/21 04:34:04;;;;;;;0.77;0.73;;;4.50;99.90;;;;;;4976410;28;20195;-81
2022/11/21 04:36:30;;;;;;;0.93;0.70;;;4.50;99.90;;;;;;4975067;28;20200;-81
2022/11/21 04:38:55;;;;;;;1.10;1.00;;;4.50;99.90;;;;;;4975468;28;20184;-78
2022/11/21 04:41:21;;;;;;;1.50;1.10;;;4.60;99.90;;;;;;4976379;28;20203;-81
2022/11/21 04:43:46;;;;;;;1.43;1.10;;;4.60;99.90;;;;;;4975463;28;20187;-80
2022/11/21 04:46:12;;;;;;;1.40;1.20;;;4.60;99.90;;;;;;4976586;28;20219;-80
2022/11/21 04:48:37;;;;;;;1.20;1.10;;;4.60;99.90;;;;;;4975259;28;20200;-81
2022/11/21 04:51:03;;;;;;;1.30;1.20;;;4.60;99.90;;;;;;4973833;28;20192;-80
2022/11/21 04:53:28;;;;;;;1.73;1.43;;;4.50;99.90;;;;;;4974987;28;20172;-81
2022/11/21 04:55:54;;;;;;;1.97;1.67;;;4.50;99.90;;;;;;4976585;28;20207;-80
2022/11/21 04:58:19;;;;;;;1.80;1.70;;;4.60;99.90;;;;;;4975962;28;20670;-81
2022/11/21 05:00:45;;;;;;;2.03;1.83;;;4.50;99.90;;;;;;4975812;28;20199;-80
2022/11/21 05:03:10;;;;;;;2.10;1.90;;;4.50;99.90;;;;;;4974549;28;20190;-81
2022/11/21 05:05:36;;;;;;;2.63;2.13;;;4.50;99.90;;;;;;4974453;28;20219;-81
2022/11/21 05:08:02;;;;;;;3.17;2.30;;;4.50;99.90;;;;;;4974540;28;20186;-81
2022/11/21 05:10:27;;;;;;;3.17;2.40;;;4.50;99.90;;;;;;4976025;28;20668;-80
2022/11/21 05:15:42;;;;;;;2.80;2.40;;;4.50;99.90;;;;;;4956498;29;20215;-80
2022/11/21 05:18:08;;;;;;;3.90;2.90;;;4.50;99.90;;;;;;4956084;28;20279;-81
2022/11/21 05:20:33;;;;;;;2.73;2.40;;;4.60;99.90;;;;;;4956334;28;20184;-80
2022/11/21 05:22:59;;;;;;;3.60;2.90;;;4.60;99.90;;;;;;4955241;28;20277;-80
2022/11/21 05:25:24;;;;;;;3.30;2.93;;;4.60;99.90;;;;;;4971113;28;20219;-80
2022/11/21 05:27:50;;;;;;;3.57;2.80;;;4.60;99.90;;;;;;4971215;28;20187;-80
2022/11/21 05:30:15;;;;;;;3.43;2.63;;;4.50;99.90;;;;;;4956192;28;20177;-81
2022/11/21 05:32:42;;;;;;;3.43;2.50;;;4.50;99.90;;;;;;4955074;28;20209;-80
2022/11/21 05:35:08;;;;;;;3.23;2.67;;;4.60;99.90;;;;;;4955451;28;20176;-80
2022/11/21 05:37:33;;;;;;;2.90;2.60;;;4.50;99.90;;;;;;4955071;28;20192;-81
2022/11/21 05:39:59;;;;;;;3.27;2.77;;;4.50;99.90;;;;;;4955287;29;20195;-81
2022/11/21 05:45:09;;;;;;;4.33;2.70;;;4.50;99.90;;;;;;4955777;28;20208;-81
2022/11/21 05:47:34;;;;;;;2.83;2.37;;;4.50;99.90;;;;;;4956103;28;20157;-81
2022/11/21 05:50:00;;;;;;;3.83;2.57;;;4.50;99.90;;;;;;4954887;28;20267;-80
2022/11/21 05:52:27;;;;;;;3.40;2.40;;;4.50;99.90;;;;;;4955828;28;20177;-81
2022/11/21 05:54:52;;;;;;;2.60;2.40;;;4.50;99.90;;;;;;4955748;28;20179;-80
2022/11/21 05:57:18;;;;;;;2.67;2.30;;;4.50;99.90;;;;;;4974910;28;20180;-80
2022/11/21 05:59:43;;;;;;;3.80;2.30;;;4.50;99.90;;;;;;4974206;28;20172;-80
2022/11/21 06:04:53;;;;;;;2.70;2.43;;;4.50;99.90;;;;;;4975203;28;20235;-80
2022/11/21 06:07:19;;;;;;;2.80;2.43;;;4.50;99.90;;;;;;4973860;28;20179;-82
2022/11/21 06:09:44;;;;;;;3.00;2.40;;;4.40;99.90;;;;;;4972599;28;20168;-82
2022/11/21 06:12:10;;;;;;;3.17;2.87;;;4.40;99.90;;;;;;4972584;28;20172;-81
2022/11/21 06:14:35;;;;;;;3.17;2.70;;;4.40;99.90;;;;;;4972974;28;20168;-81
2022/11/21 06:17:01;;;;;;;3.30;2.60;;;4.40;99.90;;;;;;4973743;28;20200;-81
2022/11/21 06:19:26;;;;;;;2.97;2.67;;;4.40;99.90;;;;;;4972535;28;20176;-82
2022/11/21 06:21:52;;;;;;;3.73;2.70;;;4.40;99.90;;;;;;4972564;28;20196;-81
2022/11/21 06:24:17;;;;;;;3.27;2.87;;;4.40;99.90;;;;;;4972591;28;20223;-81
2022/11/21 06:26:43;;;;;;;3.50;3.20;;;4.40;99.90;;;;;;4972461;28;20207;-78
2022/11/21 06:29:11;;;;;;;3.93;3.33;;;4.40;99.90;;;;;;4972493;28;20223;-81
2022/11/21 06:31:37;;;;;;;4.33;3.13;;;4.40;99.90;;;;;;4972876;28;20180;-81
2022/11/21 06:34:02;;;;;;;4.17;3.77;;;4.40;99.90;;;;;;4972380;28;20179;-81
2022/11/21 06:36:28;;;;;;;5.23;4.10;;;4.40;99.90;;;;;;4972413;28;20199;-82
2022/11/21 06:38:55;;;;;;;5.43;3.90;;;4.40;99.90;;;;;;4972277;28;20180;-81
2022/11/21 06:41:25;;;;;;;4.60;4.00;;;4.40;99.90;;;;;;4973395;28;20180;-81
2022/11/21 06:43:51;;;;;;;4.73;3.77;;;4.50;99.90;;;;;;4974003;28;20255;-81
2022/11/21 06:46:16;;;;;;;5.23;3.87;;;4.50;99.90;;;;;;5012006;23;20642;-84
2022/11/21 06:48:42;;;;;;;4.20;3.80;;;4.50;99.90;;;;;;5014789;28;20646;-83
2022/11/21 06:51:18;;;;;;;4.70;3.63;;;4.50;99.90;;;;;;5016844;28;20185;-84
2022/11/21 06:53:44;;;;;;;4.30;3.90;;;4.50;99.90;;;;;;5031843;28;20174;-83
2022/11/21 06:56:10;;;;;;;4.33;3.43;;;4.50;99.90;;;;;;5025052;28;20210;-83
2022/11/21 06:58:36;;;;;;;4.57;3.60;;;4.50;99.90;;;;;;4995099;28;20693;-79
2022/11/21 07:01:07;;;;;;;5.80;3.13;;;5.00;99.90;;;;;;4996652;28;20178;-79
2022/11/21 07:03:33;;;;;;;4.10;3.37;;;5.40;99.90;;;;;;4995357;28;20176;-80
2022/11/21 07:06:02;;;;;;;2.93;2.63;;;5.80;99.90;;;;;;4996327;28;20749;-81
2022/11/21 07:08:29;;;;;;;2.70;2.40;;;6.10;99.90;;;;;;4995579;28;20611;-81
2022/11/21 07:10:55;;;;;;;3.87;2.70;;;6.30;99.90;;;;;;4996626;28;20213;-82
2022/11/21 07:13:21;;;;;;;3.07;2.60;;;6.70;99.90;;;;;;4996870;28;20191;-81
2022/11/21 07:15:50;;;;;;;3.60;3.30;;;6.90;99.90;;;;;;4995294;28;20202;-82
2022/11/21 07:18:16;;;;;;;4.47;3.27;;;6.90;99.90;;;;;;4996343;28;20175;-83
2022/11/21 07:20:42;;;;;;;3.90;3.50;;;6.50;99.90;;;;;;4995260;28;20186;-84
2022/11/21 07:23:08;;;;;;;3.83;3.40;;;5.90;99.90;;;;;;4995615;28;20178;-82
2022/11/21 07:25:34;;;;;;;4.73;3.90;;;5.50;99.90;;;;;;4997159;28;20293;-83
2022/11/21 07:28:00;;;;;;;4.63;3.40;;;5.30;99.90;;;;;;4996338;28;20285;-81
2022/11/21 07:30:26;;;;;;;4.83;3.70;;;5.00;99.90;;;;;;4996487;28;20269;-81
2022/11/21 07:32:59;;;;;;;4.27;3.70;;;5.00;99.90;;;;;;4995013;28;20204;-82
2022/11/21 07:35:25;;;;;;;5.33;4.10;;;4.90;99.90;;;;;;5011057;28;20186;-81
2022/11/21 07:37:51;;;;;;;4.47;3.87;;;4.70;99.90;;;;;;4995581;28;20180;-83
2022/11/21 07:40:16;;;;;;;5.20;4.40;;;4.70;99.90;;;;;;4996262;28;20179;-83
2022/11/21 07:42:42;;;;;;;6.00;4.33;;;4.70;99.90;;;;;;4994624;28;20295;-84
2022/11/21 07:45:08;;;;;;;4.77;4.30;;;4.60;99.90;;;;;;4996186;28;20228;-84
2022/11/21 07:47:34;;;;;;;5.60;4.30;;;4.60;99.90;;;;;;4994289;28;20247;-83
2022/11/21 07:50:00;;;;;;;4.77;4.00;;;4.60;99.90;;;;;;4996189;28;20203;-84
2022/11/21 07:52:25;;;;;;;6.17;4.20;;;4.50;99.90;;;;;;4996010;28;20188;-83
2022/11/21 07:54:51;;;;;;;3.90;3.50;;;4.50;99.90;;;;;;4996130;28;20227;-83
2022/11/21 07:57:17;;;;;;;5.27;4.07;;;4.50;99.90;;;;;;4993547;28;20567;-84
2022/11/21 07:59:43;;;;;;;4.87;3.73;;;4.50;99.90;;;;;;4996075;28;20172;-83
2022/11/21 08:02:18;;;;;;;4.67;3.90;;;4.50;99.90;;;;;;4995853;28;20233;-83
2022/11/21 08:04:43;;;;;;;5.47;3.70;;;4.50;99.90;;;;;;4994183;28;20222;-83
2022/11/21 08:07:09;;;;;;;6.83;5.43;;;4.40;99.90;;;;;;4994155;28;20203;-83
2022/11/21 08:09:35;;;;;;;10.60;7.53;;;4.40;99.90;;;;;;4995842;28;20402;-83
2022/11/21 08:12:01;;;;;;;6.53;4.87;;;4.50;99.90;;;;;;4994837;28;20203;-83
2022/11/21 08:14:26;;;;;;;5.50;4.30;;;4.50;99.90;;;;;;4994672;28;20168;-83
2022/11/21 08:16:52;;;;;;;5.40;4.40;;;4.50;99.90;;;;;;4993982;28;20552;-83
2022/11/21 08:19:18;;;;;;;5.63;4.77;;;4.50;99.90;;;;;;4994066;28;20661;-84
2022/11/21 08:21:43;;;;;;;5.03;4.13;;;4.50;99.90;;;;;;4992404;28;20172;-83
2022/11/21 08:24:13;;;;;;;5.33;4.27;;;4.50;99.90;;;;;;4995103;28;20172;-83
2022/11/21 08:26:39;;;;;;;4.47;4.00;;;4.50;99.90;;;;;;4994277;28;20644;-83
2022/11/21 08:29:05;;;;;;;5.23;4.43;;;4.50;99.90;;;;;;4993632;28;20171;-83
2022/11/21 08:31:31;;;;;;;4.30;3.90;;;4.60;99.90;;;;;;4995460;28;20176;-83
2022/11/21 08:33:57;;;;;;;4.53;4.03;;;4.50;99.90;;;;;;4993746;28;20194;-84
2022/11/21 08:36:23;;;;;;;5.13;4.23;;;4.60;99.90;;;;;;4995197;28;20197;-83
2022/11/21 08:38:49;;;;;;;5.17;3.90;;;4.60;99.90;;;;;;4994955;28;20179;-81
2022/11/21 08:43:58;;;;;;;5.73;4.83;;;4.60;99.90;;;;;;4976091;28;20187;-83
2022/11/21 08:46:26;;;;;;;6.30;4.80;;;4.60;99.90;;;;;;4974101;28;20702;-83
2022/11/21 08:48:53;;;;;;;5.10;4.57;;;4.70;99.90;;;;;;4974983;28;20180;-84
2022/11/21 08:51:20;;;;;;;5.67;4.93;;;4.70;99.90;;;;;;4978863;28;20176;-82
2022/11/21 08:53:45;;;;;;;4.83;4.00;;;4.70;99.90;;;;;;4994832;28;20179;-83
2022/11/21 08:56:11;;;;;;;4.90;4.40;;;4.70;99.90;;;;;;4994720;28;20191;-85
2022/11/21 08:58:36;;;;;;;5.77;4.57;;;4.70;99.90;;;;;;4994292;28;20207;-85
2022/11/21 09:01:02;;;;;;;6.00;4.73;;;4.70;99.90;;;;;;4994581;28;20182;-82
2022/11/21 09:03:28;;;;;;;6.73;5.00;;;4.70;99.90;;;;;;4994904;28;20242;-83
2022/11/21 09:05:58;;;;;;;6.60;4.80;;;4.80;99.90;;;;;;4993312;28;20208;-82
2022/11/21 09:08:25;;;;;;;6.03;4.70;;;4.90;99.90;;;;;;4993728;28;20184;-86
2022/11/21 09:10:51;;;;;;;6.03;5.00;;;5.20;99.90;;;;;;4994440;28;20177;-84
2022/11/21 09:13:16;;;;;;;6.93;5.00;;;5.50;99.90;;;;;;4993206;28;20180;-83
2022/11/21 09:18:26;;;;;;;7.33;5.93;;;5.30;99.90;;;;;;4994648;28;20225;-83
2022/11/21 09:20:51;;;;;;;11.40;10.30;;;5.10;99.90;;;;;;4993319;28;20187;-85
2022/11/21 09:23:17;;;;;;;9.63;7.27;;;5.10;99.90;;;;;;4994508;28;20195;-82
2022/11/21 09:25:43;;;;;;;7.87;6.23;;;5.00;99.90;;;;;;4991040;28;20310;-83
2022/11/21 09:28:11;;;;;;;19.70;14.90;;;5.00;99.90;;;;;;4993671;28;20177;-83
2022/11/21 09:30:38;;;;;;;16.17;10.80;;;5.00;99.90;;;;;;4992554;28;20179;-84
2022/11/21 09:33:15;;;;;;;9.60;7.10;;;5.10;99.90;;;;;;4992378;28;20180;-84
2022/11/21 09:35:41;;;;;;;11.13;8.97;;;5.20;99.90;;;;;;4993995;28;20175;-85
2022/11/21 09:38:07;;;;;;;6.90;5.60;;;5.20;99.90;;;;;;4992311;28;20184;-85
2022/11/21 09:40:34;;;;;;;6.97;4.90;;;5.30;99.90;;;;;;4993504;28;20266;-85
2022/11/21 09:43:18;;;;;;;7.20;5.83;;;5.40;99.90;;;;;;4994060;28;20179;-84
2022/11/21 09:45:46;;;;;;;5.43;4.27;;;5.80;99.90;;;;;;4990881;28;20246;-84
2022/11/21 09:48:32;;;;;;;6.63;4.20;;;6.10;99.90;;;;;;4994123;28;20173;-84
2022/11/21 09:51:06;;;;;;;5.27;3.70;;;6.10;99.90;;;;;;4991937;28;20251;-84
2022/11/21 09:53:57;;;;;;;5.43;3.60;;;6.00;99.90;;;;;;5006747;28;20181;-83
2022/11/21 09:56:23;;;;;;;4.70;3.53;;;5.90;99.90;;;;;;4991572;28;20210;-82
2022/11/21 09:59:20;;;;;;;8.20;6.03;;;5.90;99.90;;;;;;4993240;28;20197;-84
2022/11/21 10:01:46;;;;;;;9.63;6.23;;;6.00;99.90;;;;;;4994237;28;20180;-82
2022/11/21 10:04:12;;;;;;;4.50;3.73;;;6.10;99.90;;;;;;4994076;28;20184;-83
2022/11/21 10:07:10;;;;;;;4.17;3.10;;;6.20;99.90;;;;;;4994452;28;20215;-83
2022/11/21 10:09:54;;;;;;;7.67;5.67;;;6.50;99.90;;;;;;4994361;28;20263;-83
2022/11/21 10:12:38;;;;;;;8.43;4.20;;;6.60;99.90;;;;;;4993315;28;20172;-83
2022/11/21 10:15:30;;;;;;;5.90;3.90;;;6.80;99.90;;;;;;4992669;28;20177;-84
2022/11/21 10:18:15;;;;;;;4.20;3.40;;;6.60;99.90;;;;;;4994109;28;20190;-82
2022/11/21 10:21:06;;;;;;;6.80;3.97;;;6.50;99.90;;;;;;4994904;28;20203;-81
2022/11/21 10:23:56;;;;;;;5.97;3.80;;;6.40;99.90;;;;;;4997959;28;20161;-81
2022/11/21 10:26:42;;;;;;;6.03;4.00;;;6.30;99.90;;;;;;4995744;28;20217;-82
2022/11/21 10:29:14;;;;;;;6.97;3.77;;;6.30;99.90;;;;;;4996275;28;20177;-83
2022/11/21 10:31:41;;;;;;;5.03;3.90;;;6.20;99.90;;;;;;4997539;28;20646;-82
2022/11/21 10:34:21;;;;;;;3.83;3.30;;;6.20;99.90;;;;;;4997074;28;20187;-82
2022/11/21 10:36:51;;;;;;;4.43;2.97;;;6.10;99.90;;;;;;4996846;28;20225;-83
2022/11/21 10:39:16;;;;;;;4.20;3.20;;;6.10;99.90;;;;;;4996851;28;20179;-84
2022/11/21 10:42:17;;;;;;;3.43;2.60;;;6.00;99.90;;;;;;4996526;28;20177;-84
2022/11/21 10:47:36;;;;;;;3.30;2.93;;;6.10;99.90;;;;;;4995288;28;20254;-83
2022/11/21 10:50:14;;;;;;;3.97;3.03;;;6.00;99.90;;;;;;4997020;28;20208;-83
2022/11/21 10:52:46;;;;;;;4.83;3.57;;;5.80;99.90;;;;;;4997352;28;20212;-80
2022/11/21 10:55:13;;;;;;;4.10;3.40;;;5.70;99.90;;;;;;4996227;28;20178;-84
2022/11/21 10:57:47;;;;;;;5.10;3.40;;;5.60;99.90;;;;;;4996325;28;20674;-84
2022/11/21 11:00:19;;;;;;;4.67;3.30;;;5.60;99.90;;;;;;4996688;28;20210;-84
2022/11/21 11:03:03;;;;;;;4.40;3.10;;;5.60;99.90;;;;;;4996722;28;20179;-83
2022/11/21 11:05:37;;;;;;;5.13;3.53;;;5.60;99.90;;;;;;4994807;28;20554;-82
2022/11/21 11:08:11;;;;;;;6.30;3.67;;;5.70;99.90;;;;;;4997850;28;20215;-83
2022/11/21 11:10:42;;;;;;;6.83;3.87;;;5.70;99.90;;;;;;4996308;28;20186;-83
2022/11/21 11:16:14;;;;;;;6.33;4.67;;;6.00;99.90;;;;;;4997143;28;20194;-83
2022/11/21 11:18:46;;;;;;;6.40;4.43;;;6.10;99.90;;;;;;4995640;28;20200;-81
2022/11/21 11:21:21;;;;;;;6.47;4.10;;;6.20;99.90;;;;;;4997382;28;20651;-83
2022/11/21 11:23:48;;;;;;;4.93;3.37;;;6.20;99.90;;;;;;4996426;28;20188;-82
2022/11/21 11:26:18;;;;;;;5.07;3.37;;;6.30;99.90;;;;;;4997520;28;20219;-83
2022/11/21 11:28:44;;;;;;;6.13;3.60;;;6.30;99.90;;;;;;4996831;28;20182;-82
2022/11/21 11:31:10;;;;;;;5.70;3.37;;;6.40;99.90;;;;;;4997589;28;20175;-82
2022/11/21 11:33:46;;;;;;;4.90;3.60;;;6.40;99.90;;;;;;4998510;28;20642;-82
2022/11/21 11:36:13;;;;;;;5.40;3.40;;;6.30;99.90;;;;;;4999241;28;20196;-81
2022/11/21 11:39:00;;;;;;;6.03;3.50;;;6.30;99.90;;;;;;4999066;28;20190;-82
2022/11/21 13:49:39;;;;;;;18.93;7.63;;;6.20;99.90;;;;;;5290243;22;20238;-84
2022/11/21 13:52:18;;;;;;;18.53;7.23;;;6.20;99.90;;;;;;4993518;28;20178;-83
2022/11/21 13:54:49;;;;;;;18.27;7.20;;;6.20;99.90;;;;;;4991550;28;20271;-83
2022/11/21 13:57:38;;;;;;;24.60;9.53;;;6.10;99.90;;;;;;4992502;28;20235;-84
2022/11/21 14:00:16;;;;;;;23.47;8.83;;;6.10;99.90;;;;;;4974225;28;20210;-85
2022/11/21 14:03:17;;;;;;;13.90;5.47;;;6.00;99.90;;;;;;4985152;22;20233;-79
2022/11/21 14:06:09;;;;;;;8.20;3.40;;;6.10;99.90;;;;;;4966391;28;20201;-80
2022/11/21 14:08:34;;;;;;;22.17;10.53;;;6.10;99.90;;;;;;4973458;28;20259;-82
2022/11/21 14:11:47;;;;;;;7.77;5.57;;;6.10;99.90;;;;;;4988399;28;20283;-82
2022/11/21 14:14:43;;;;;;;7.80;4.63;;;6.00;99.90;;;;;;4966990;28;20189;-82
2022/11/21 14:17:22;;;;;;;5.30;2.77;;;6.40;99.90;;;;;;4962199;28;20585;-83
2022/11/21 14:19:49;;;;;;;4.87;2.87;;;6.30;99.90;;;;;;4988159;28;20177;-83
2022/11/21 14:22:30;;;;;;;3.27;2.30;;;6.30;99.90;;;;;;4988340;28;20198;-82
2022/11/21 14:24:57;;;;;;;2.60;2.23;;;6.10;99.90;;;;;;4969776;28;20215;-83
2022/11/21 14:27:31;;;;;;;3.60;2.73;;;6.10;99.90;;;;;;4972495;28;20710;-82
2022/11/21 14:29:57;;;;;;;4.53;2.83;;;6.00;99.90;;;;;;4955390;28;20178;-82
2022/11/21 14:32:28;;;;;;;3.43;2.20;;;6.00;99.90;;;;;;4973434;28;20208;-82
2022/11/21 14:35:10;;;;;;;3.30;2.30;;;6.00;99.90;;;;;;4974023;28;20169;-83
2022/11/21 14:37:39;;;;;;;4.43;2.10;;;5.90;99.90;;;;;;4973457;28;20170;-81
2022/11/21 14:40:09;;;;;;;3.13;2.40;;;5.90;99.90;;;;;;4972182;28;20178;-83
2022/11/21 14:42:35;;;;;;;4.93;2.40;;;5.90;99.90;;;;;;4972051;28;20205;-82
2022/11/21 14:45:21;;;;;;;2.77;2.07;;;5.90;99.90;;;;;;4973628;28;20233;-82
2022/11/21 14:47:52;;;;;;;4.50;2.40;;;5.90;99.90;;;;;;4972454;28;20212;-82
2022/11/21 14:50:29;;;;;;;3.93;2.00;;;5.90;99.90;;;;;;4973594;28;20184;-83
2022/11/21 14:52:56;;;;;;;3.93;2.30;;;5.90;99.90;;;;;;4973360;28;20224;-82
2022/11/21 14:55:30;;;;;;;5.07;1.70;;;5.80;99.90;;;;;;4972376;28;20228;-82
2022/11/21 14:57:58;;;;;;;2.97;1.60;;;5.90;99.90;;;;;;4971991;28;20182;-82
2022/11/21 15:00:26;;;;;;;2.93;1.90;;;5.80;99.90;;;;;;4972121;28;20187;-82
2022/11/21 15:02:54;;;;;;;3.00;1.87;;;5.70;99.90;;;;;;4972055;28;20305;-82
2022/11/21 15:05:22;;;;;;;2.17;1.77;;;5.70;99.90;;;;;;4973480;28;20173;-82
2022/11/21 15:07:48;;;;;;;2.63;1.67;;;5.70;99.90;;;;;;4975462;28;20172;-82
2022/11/21 15:10:15;;;;;;;3.27;1.90;;;5.60;99.90;;;;;;4975596;28;20177;-82
2022/11/21 15:12:47;;;;;;;3.40;2.03;;;5.60;99.90;;;;;;4976738;28;20200;-83
2022/11/21 15:15:35;;;;;;;4.73;2.70;;;5.50;99.90;;;;;;4975464;28;20263;-82
2022/11/21 15:18:03;;;;;;;2.67;1.70;;;5.50;99.90;;;;;;4976733;28;20158;-83
2022/11/21 15:20:30;;;;;;;2.77;1.80;;;5.40;99.90;;;;;;4976740;28;20184;-82
2022/11/21 15:22:58;;;;;;;2.23;1.70;;;5.40;99.90;;;;;;4975572;28;20246;-82
2022/11/21 15:25:44;;;;;;;3.33;1.60;;;5.30;99.90;;;;;;4975048;28;20199;-82
2022/11/21 15:28:17;;;;;;;2.00;1.70;;;5.30;99.90;;;;;;4976580;28;20252;-83
2022/11/21 15:30:44;;;;;;;2.27;1.77;;;5.20;99.90;;;;;;4976434;28;20188;-82
2022/11/21 15:33:12;;;;;;;2.20;1.90;;;5.20;99.90;;;;;;4975163;28;20176;-82